Time;durP1;ratioP1;P1;durP2;ratioP2;P2;SDS_P1;SDS_P2;PMS_P1;PMS_P2;Temp;Humidity;BMP_temperature;BMP_pressure;BME280_temperature;BME280_humidity;BME280_pressure;Samples;Min_cycle;Max_cycle;Signal;HPM_P1;HPM_P2
2022/03/19 00:04:14;;;;;;;1.83;1.08;;;16.90;61.10;;;;;;10377582;28;20092;-61
2022/03/19 00:09:15;;;;;;;1.88;1.20;;;16.90;61.30;;;;;;10377304;28;20065;-61
2022/03/19 00:14:15;;;;;;;1.25;0.80;;;17.00;61.20;;;;;;10376886;28;20421;-61
2022/03/19 00:19:16;;;;;;;2.85;1.27;;;16.90;61.00;;;;;;10377124;28;20459;-60
2022/03/19 00:24:17;;;;;;;2.30;0.90;;;16.90;61.00;;;;;;10376536;28;20069;-62
2022/03/19 00:29:17;;;;;;;1.55;0.90;;;16.90;61.20;;;;;;10376184;28;20046;-61
2022/03/19 00:34:18;;;;;;;2.10;1.10;;;16.90;61.30;;;;;;10404113;28;20479;-61
2022/03/19 00:39:19;;;;;;;1.58;0.90;;;16.80;61.30;;;;;;10399677;28;20018;-61
2022/03/19 00:44:21;;;;;;;1.45;0.90;;;16.80;61.30;;;;;;10375873;28;20034;-61
2022/03/19 00:49:22;;;;;;;2.25;1.90;;;16.80;61.40;;;;;;10375296;28;20342;-61
2022/03/19 00:54:22;;;;;;;1.20;0.85;;;16.90;60.90;;;;;;10376896;28;20037;-61
2022/03/19 00:59:23;;;;;;;2.72;1.15;;;17.00;60.70;;;;;;10374549;28;20549;-61
2022/03/19 01:04:24;;;;;;;1.95;0.80;;;17.00;60.70;;;;;;10374781;28;20119;-61
2022/03/19 01:09:24;;;;;;;1.63;0.65;;;17.00;60.50;;;;;;10373588;28;20030;-61
2022/03/19 01:14:25;;;;;;;1.92;0.88;;;17.10;60.50;;;;;;10374712;28;20061;-61
2022/03/19 01:24:45;;;;;;;1.20;0.60;;;17.00;60.60;;;;;;10401768;28;20042;-61
2022/03/19 01:29:47;;;;;;;1.45;0.70;;;16.90;60.70;;;;;;10411791;28;20052;-61
2022/03/19 01:34:47;;;;;;;2.95;0.80;;;16.90;60.90;;;;;;10383006;28;20041;-61
2022/03/19 01:39:49;;;;;;;3.03;1.35;;;17.00;60.80;;;;;;10393681;28;20070;-61
2022/03/19 01:44:52;;;;;;;1.20;0.70;;;17.00;60.50;;;;;;10407256;28;20110;-62
2022/03/19 01:49:53;;;;;;;1.33;0.70;;;17.10;60.20;;;;;;10391504;28;20052;-61
2022/03/19 01:54:53;;;;;;;1.75;0.70;;;17.20;60.00;;;;;;10375650;28;20555;-61
2022/03/19 01:59:57;;;;;;;1.00;0.50;;;17.20;59.90;;;;;;10373008;28;20541;-61
2022/03/19 02:04:59;;;;;;;1.27;0.65;;;17.20;59.80;;;;;;10398608;28;20041;-61
2022/03/19 02:10:01;;;;;;;1.30;0.70;;;17.10;59.90;;;;;;10370585;28;20125;-60
2022/03/19 02:15:02;;;;;;;1.65;0.77;;;17.10;60.00;;;;;;10409858;28;20037;-62
2022/03/19 02:20:05;;;;;;;1.40;0.75;;;17.10;60.00;;;;;;10387973;28;20401;-62
2022/03/19 02:30:26;;;;;;;0.88;0.70;;;17.10;59.70;;;;;;10412029;28;20413;-61
2022/03/19 02:35:27;;;;;;;1.05;0.82;;;17.10;59.90;;;;;;10365224;28;20038;-61
2022/03/19 02:40:28;;;;;;;1.27;0.63;;;17.00;60.00;;;;;;10386653;28;20067;-61
2022/03/19 02:45:29;;;;;;;0.95;0.60;;;17.10;59.90;;;;;;10372700;28;20037;-61
2022/03/19 02:50:37;;;;;;;1.00;0.63;;;17.10;59.90;;;;;;10370970;28;20106;-61
2022/03/19 02:55:41;;;;;;;1.20;0.50;;;17.00;59.90;;;;;;10372446;28;20524;-61
2022/03/19 03:00:42;;;;;;;1.15;0.80;;;17.00;59.90;;;;;;10364664;28;20042;-61
2022/03/19 03:05:43;;;;;;;1.75;0.70;;;17.10;59.80;;;;;;10367670;28;20564;-61
2022/03/19 03:10:43;;;;;;;1.35;0.60;;;17.10;59.50;;;;;;10377401;28;20026;-61
2022/03/19 03:15:45;;;;;;;1.90;0.80;;;17.10;59.50;;;;;;10389509;28;20072;-61
2022/03/19 03:20:45;;;;;;;2.45;0.88;;;17.00;59.70;;;;;;10373505;28;20030;-62
2022/03/19 03:25:46;;;;;;;1.90;1.00;;;17.00;59.80;;;;;;10379063;28;20487;-62
2022/03/19 03:30:47;;;;;;;1.42;0.70;;;17.10;59.50;;;;;;10379399;28;20412;-61
2022/03/19 03:35:47;;;;;;;2.90;0.80;;;17.00;59.50;;;;;;10378949;28;20061;-62
2022/03/19 03:40:48;;;;;;;1.33;0.52;;;17.00;59.50;;;;;;10369516;28;20072;-61
2022/03/19 03:45:49;;;;;;;2.33;0.80;;;17.00;59.80;;;;;;10378173;28;20057;-61
2022/03/19 03:50:54;;;;;;;3.30;1.08;;;17.00;59.60;;;;;;10377658;28;20037;-61
2022/03/19 03:55:57;;;;;;;1.05;0.65;;;17.10;59.40;;;;;;10365776;28;20072;-61
2022/03/19 04:00:58;;;;;;;1.55;0.80;;;17.20;59.00;;;;;;10377235;28;20061;-62
2022/03/19 04:05:58;;;;;;;2.25;0.90;;;17.20;58.80;;;;;;10377023;28;20386;-61
2022/03/19 04:10:59;;;;;;;1.15;0.60;;;17.20;58.90;;;;;;10377037;28;20036;-61
2022/03/19 04:16:00;;;;;;;2.25;0.88;;;17.10;59.10;;;;;;10412916;28;20095;-61
2022/03/19 04:21:00;;;;;;;1.88;0.90;;;17.10;59.20;;;;;;10415647;28;20120;-61
2022/03/19 04:26:02;;;;;;;1.50;0.50;;;17.20;59.00;;;;;;10417631;28;20424;-61
2022/03/19 04:31:02;;;;;;;0.75;0.60;;;17.10;59.00;;;;;;10416945;28;20032;-62
2022/03/19 04:41:23;;;;;;;0.77;0.60;;;17.20;59.00;;;;;;10395561;28;20042;-61
2022/03/19 04:46:23;;;;;;;2.63;0.70;;;17.10;58.90;;;;;;10378652;28;20038;-62
2022/03/19 04:51:33;;;;;;;1.45;0.65;;;17.10;59.00;;;;;;10381991;28;20443;-61
2022/03/19 04:56:34;;;;;;;1.13;0.60;;;17.10;59.10;;;;;;10373722;28;20017;-61
2022/03/19 05:01:35;;;;;;;1.25;0.73;;;17.10;58.90;;;;;;10390379;28;20032;-62
2022/03/19 05:06:35;;;;;;;1.65;0.60;;;17.10;58.90;;;;;;10390257;28;20105;-61
2022/03/19 05:11:36;;;;;;;1.85;0.85;;;17.10;59.10;;;;;;10387485;28;20029;-61
2022/03/19 05:16:37;;;;;;;1.25;0.50;;;17.10;59.00;;;;;;10390412;28;20022;-62
2022/03/19 05:21:38;;;;;;;1.17;0.40;;;17.10;58.80;;;;;;10388337;28;20041;-62
2022/03/19 05:26:39;;;;;;;1.55;0.70;;;17.10;59.00;;;;;;10390876;28;20122;-61
2022/03/19 05:31:39;;;;;;;2.63;0.60;;;17.10;59.10;;;;;;10358498;28;20064;-62
2022/03/19 05:36:43;;;;;;;1.15;0.60;;;17.10;58.90;;;;;;10367772;28;20029;-62
2022/03/19 05:41:44;;;;;;;1.70;0.50;;;17.10;59.00;;;;;;10408390;28;20033;-61
2022/03/19 05:46:45;;;;;;;3.78;1.45;;;17.00;59.10;;;;;;10414883;28;20504;-63
2022/03/19 05:51:46;;;;;;;1.63;0.82;;;17.10;59.10;;;;;;10355887;28;20033;-61
2022/03/19 05:56:47;;;;;;;6.65;0.95;;;17.10;59.20;;;;;;10368270;28;20425;-61
2022/03/19 06:01:47;;;;;;;9.48;1.92;;;17.10;59.60;;;;;;10414858;28;20114;-62
2022/03/19 06:06:48;;;;;;;13.93;1.92;;;17.20;60.30;;;;;;10405266;28;20383;-61
2022/03/19 06:11:49;;;;;;;14.55;2.08;;;17.40;60.20;;;;;;10407279;28;20514;-60
2022/03/19 06:16:49;;;;;;;6.20;1.23;;;17.50;61.40;;;;;;10413265;28;20529;-60
2022/03/19 06:21:50;;;;;;;6.88;1.52;;;17.50;61.50;;;;;;10376823;28;20033;-64
2022/03/19 06:26:51;;;;;;;10.10;1.75;;;17.50;61.10;;;;;;10372590;28;20137;-60
2022/03/19 06:31:51;;;;;;;13.00;2.92;;;17.50;61.80;;;;;;10359077;28;20141;-60
2022/03/19 06:42:11;;;;;;;17.03;2.83;;;17.10;62.00;;;;;;10387454;28;20045;-61
2022/03/19 06:47:12;;;;;;;12.45;2.22;;;17.10;62.30;;;;;;10368234;28;20049;-61
2022/03/19 06:52:13;;;;;;;16.08;3.83;;;17.00;62.50;;;;;;10392422;28;20038;-62
2022/03/19 06:57:13;;;;;;;20.40;3.80;;;16.90;62.50;;;;;;10407025;28;20440;-62
2022/03/19 07:02:14;;;;;;;14.45;3.10;;;16.90;62.50;;;;;;10410618;28;20075;-61
2022/03/19 07:07:14;;;;;;;20.55;3.35;;;16.80;62.10;;;;;;10412272;28;20061;-62
2022/03/19 07:12:16;;;;;;;16.48;3.00;;;16.80;62.40;;;;;;10409587;28;20129;-63
2022/03/19 07:17:16;;;;;;;13.75;3.15;;;16.70;62.40;;;;;;10357683;28;20041;-63
2022/03/19 07:22:17;;;;;;;10.68;2.55;;;16.70;62.20;;;;;;10369809;28;20117;-62
2022/03/19 07:27:18;;;;;;;14.88;3.45;;;16.60;62.00;;;;;;10363988;28;20085;-64
2022/03/19 07:32:18;;;;;;;15.65;2.80;;;16.70;61.90;;;;;;10368577;28;20128;-63
2022/03/19 07:37:19;;;;;;;15.85;3.05;;;16.60;61.80;;;;;;10368626;28;20057;-63
2022/03/19 07:42:19;;;;;;;10.18;2.15;;;16.60;61.80;;;;;;10396734;28;20109;-64
2022/03/19 07:47:21;;;;;;;8.27;2.00;;;16.60;61.70;;;;;;10379255;28;20092;-64
2022/03/19 07:52:21;;;;;;;12.43;3.22;;;16.60;61.70;;;;;;10373031;28;20033;-63
2022/03/19 07:57:23;;;;;;;10.05;2.45;;;16.60;61.50;;;;;;10413227;28;20051;-63
2022/03/19 08:02:23;;;;;;;9.50;2.55;;;16.60;61.50;;;;;;10381869;28;20038;-63
2022/03/19 08:07:24;;;;;;;8.98;2.25;;;16.60;61.40;;;;;;10377902;28;20072;-63
2022/03/19 08:12:26;;;;;;;8.20;2.08;;;16.60;61.30;;;;;;10397676;28;20065;-63
2022/03/19 08:17:27;;;;;;;7.22;2.83;;;16.70;61.10;;;;;;10371240;28;20028;-63
2022/03/19 08:22:28;;;;;;;8.32;2.00;;;16.70;61.10;;;;;;10381823;28;20851;-63
2022/03/19 08:27:29;;;;;;;6.10;1.88;;;16.70;61.00;;;;;;10376798;28;20065;-63
2022/03/19 08:32:30;;;;;;;6.85;2.33;;;16.70;61.00;;;;;;10411067;28;20087;-63
2022/03/19 08:37:32;;;;;;;4.50;1.52;;;16.70;60.90;;;;;;10416563;28;20030;-63
2022/03/19 08:42:34;;;;;;;4.68;2.20;;;16.70;60.90;;;;;;10412164;28;20025;-63
2022/03/19 08:47:34;;;;;;;5.35;1.73;;;16.70;60.80;;;;;;10417190;28;20029;-63
2022/03/19 08:52:36;;;;;;;6.82;1.63;;;16.80;60.70;;;;;;10409174;28;20033;-63
2022/03/19 08:57:37;;;;;;;6.57;1.40;;;16.80;60.50;;;;;;10375692;28;20028;-63
2022/03/19 09:02:37;;;;;;;7.05;1.55;;;16.70;60.40;;;;;;10375900;28;20026;-62
2022/03/19 09:07:38;;;;;;;10.07;1.98;;;16.80;60.30;;;;;;10375188;28;20029;-63
2022/03/19 09:12:40;;;;;;;4.90;2.03;;;16.80;60.20;;;;;;10368280;28;20034;-60
2022/03/19 09:17:41;;;;;;;6.18;2.28;;;16.80;60.10;;;;;;10415778;28;20061;-60
2022/03/19 09:22:42;;;;;;;5.10;2.20;;;16.80;60.10;;;;;;10414647;28;20116;-61
2022/03/19 09:27:42;;;;;;;4.63;1.42;;;16.80;60.00;;;;;;10370843;28;20489;-60
2022/03/19 09:32:44;;;;;;;4.68;1.52;;;16.90;60.10;;;;;;10381411;28;20104;-60
2022/03/19 09:37:44;;;;;;;4.25;1.60;;;16.90;60.00;;;;;;10374088;28;20411;-60
2022/03/19 09:42:53;;;;;;;3.97;1.88;;;16.90;59.90;;;;;;10397193;28;20064;-60
2022/03/19 09:47:55;;;;;;;3.45;1.10;;;16.90;59.70;;;;;;10414304;28;20035;-60
2022/03/19 09:52:57;;;;;;;3.67;1.33;;;16.90;59.70;;;;;;10376791;28;20042;-60
2022/03/19 09:57:58;;;;;;;4.00;1.08;;;17.00;59.70;;;;;;10372854;28;20030;-61
2022/03/19 10:03:03;;;;;;;4.82;1.90;;;16.90;59.60;;;;;;10372552;28;20494;-60
2022/03/19 10:13:26;;;;;;;3.80;1.20;;;17.00;59.40;;;;;;10372723;28;20568;-60
2022/03/19 10:18:31;;;;;;;3.30;1.00;;;17.10;59.40;;;;;;10371926;28;20466;-60
2022/03/19 10:23:41;;;;;;;3.58;0.93;;;17.10;59.10;;;;;;10390227;28;20112;-60
2022/03/19 10:28:43;;;;;;;6.78;2.20;;;17.10;59.10;;;;;;10411967;28;20045;-60
2022/03/19 10:33:49;;;;;;;3.67;1.40;;;17.10;58.90;;;;;;10412732;28;20033;-60
2022/03/19 10:38:50;;;;;;;4.55;1.33;;;17.10;58.80;;;;;;10356946;28;20037;-60
2022/03/19 10:43:51;;;;;;;3.28;1.20;;;17.20;58.80;;;;;;10371588;28;20070;-60
2022/03/19 10:48:54;;;;;;;2.05;1.30;;;17.20;58.70;;;;;;10354214;28;20117;-60
2022/03/19 10:53:56;;;;;;;2.20;0.80;;;17.20;58.60;;;;;;10367647;28;20034;-61
2022/03/19 10:58:57;;;;;;;2.22;0.90;;;17.20;58.70;;;;;;10367126;28;20030;-61
2022/03/19 11:04:01;;;;;;;2.40;1.25;;;17.20;58.60;;;;;;10367780;28;20108;-61
2022/03/19 11:09:10;;;;;;;2.22;0.70;;;17.30;58.60;;;;;;10371262;28;20033;-61
2022/03/19 11:14:22;;;;;;;3.03;1.05;;;17.30;58.50;;;;;;10371368;28;20042;-61
2022/03/19 11:19:23;;;;;;;3.53;0.90;;;17.30;58.40;;;;;;10370987;28;20127;-60
2022/03/19 11:24:26;;;;;;;1.27;0.65;;;17.40;58.30;;;;;;10379738;28;20750;-60
2022/03/19 11:29:28;;;;;;;2.35;0.90;;;17.40;58.20;;;;;;10370956;28;20128;-60
2022/03/19 11:34:47;;;;;;;3.92;0.95;;;17.40;58.30;;;;;;10381297;28;20030;-60
2022/03/19 11:40:12;;;;;;;2.07;0.93;;;17.50;58.10;;;;;;10384179;28;20037;-60
2022/03/19 11:45:13;;;;;;;2.20;0.77;;;17.50;58.00;;;;;;10399352;28;20140;-60
2022/03/19 11:50:30;;;;;;;3.08;0.85;;;17.60;57.80;;;;;;10360759;28;20105;-60
2022/03/19 11:55:37;;;;;;;3.85;0.93;;;17.60;57.60;;;;;;10379865;28;20045;-60
2022/03/19 12:00:38;;;;;;;3.03;1.17;;;17.60;57.60;;;;;;10373649;28;20030;-60
2022/03/19 12:05:46;;;;;;;2.53;0.68;;;17.60;57.60;;;;;;10379588;28;20413;-61
2022/03/19 12:11:13;;;;;;;2.35;0.60;;;17.70;57.70;;;;;;10373256;28;20037;-60
2022/03/19 12:16:40;;;;;;;2.28;0.60;;;17.70;57.70;;;;;;10377205;28;20567;-60
2022/03/19 12:21:42;;;;;;;1.85;0.90;;;17.70;57.90;;;;;;10372141;28;20119;-61
2022/03/19 12:26:50;;;;;;;1.73;0.68;;;17.80;58.30;;;;;;10417382;28;20057;-61
2022/03/19 12:31:52;;;;;;;1.45;0.63;;;17.80;58.70;;;;;;10417294;28;20033;-60
2022/03/19 12:37:03;;;;;;;1.10;0.60;;;17.80;59.10;;;;;;10360225;28;20034;-60
2022/03/19 12:42:04;;;;;;;1.50;0.68;;;17.90;59.40;;;;;;10395847;28;20029;-60
2022/03/19 12:47:08;;;;;;;2.38;0.60;;;17.90;59.50;;;;;;10376131;28;20072;-60
2022/03/19 12:52:12;;;;;;;1.38;0.50;;;17.90;59.60;;;;;;10395334;28;20044;-60
2022/03/19 12:57:17;;;;;;;1.38;0.52;;;17.90;59.60;;;;;;10375646;28;20022;-60
2022/03/19 13:02:17;;;;;;;2.20;0.47;;;17.90;59.70;;;;;;10375224;28;20030;-60
2022/03/19 13:07:21;;;;;;;2.53;0.70;;;17.90;59.60;;;;;;10375178;28;20037;-60
2022/03/19 13:12:23;;;;;;;2.50;0.60;;;17.90;59.60;;;;;;10370653;28;20058;-61
2022/03/19 13:17:25;;;;;;;1.00;0.60;;;18.00;59.70;;;;;;10378664;28;20057;-60
2022/03/19 13:22:26;;;;;;;0.95;0.50;;;17.90;59.60;;;;;;10381271;28;20113;-60
2022/03/19 13:27:28;;;;;;;1.27;0.70;;;18.00;59.50;;;;;;10413298;28;20490;-61
2022/03/19 13:32:31;;;;;;;1.88;0.85;;;17.90;59.50;;;;;;10394183;28;20033;-60
2022/03/19 13:37:40;;;;;;;1.40;0.65;;;18.00;59.50;;;;;;10414234;28;20025;-60
2022/03/19 13:42:44;;;;;;;1.13;0.50;;;18.00;59.50;;;;;;10369297;28;20375;-60
2022/03/19 13:47:46;;;;;;;1.15;0.50;;;18.00;59.50;;;;;;10379147;28;20028;-61
2022/03/19 13:52:57;;;;;;;0.90;0.50;;;18.00;59.50;;;;;;10374062;28;20046;-61
2022/03/19 13:58:01;;;;;;;0.77;0.57;;;18.00;59.30;;;;;;10372908;28;20103;-60
2022/03/19 14:03:05;;;;;;;0.80;0.40;;;18.00;59.20;;;;;;10373143;28;20087;-61
2022/03/19 14:08:14;;;;;;;2.45;0.70;;;18.00;59.30;;;;;;10395630;28;20034;-61
2022/03/19 14:13:20;;;;;;;1.48;0.52;;;18.00;59.40;;;;;;10369241;28;20041;-61
2022/03/19 14:18:31;;;;;;;0.73;0.50;;;18.00;59.40;;;;;;10366718;28;20026;-60
2022/03/19 14:23:34;;;;;;;0.80;0.30;;;17.90;59.40;;;;;;10372252;28;20041;-60
2022/03/19 14:28:35;;;;;;;1.35;0.38;;;18.00;59.50;;;;;;10388933;28;20132;-61
2022/03/19 14:33:36;;;;;;;1.20;0.60;;;18.00;59.40;;;;;;10382109;28;20129;-61
2022/03/19 14:38:42;;;;;;;1.00;0.50;;;17.90;59.40;;;;;;10371187;28;20507;-60
2022/03/19 14:43:46;;;;;;;1.45;0.38;;;18.00;59.30;;;;;;10379881;28;20045;-60
2022/03/19 14:48:47;;;;;;;2.08;0.57;;;18.00;59.20;;;;;;10405747;28;20037;-60
2022/03/19 14:53:47;;;;;;;1.00;0.30;;;17.90;59.10;;;;;;10355734;28;20504;-60
2022/03/19 14:58:50;;;;;;;1.05;0.75;;;18.00;59.10;;;;;;10371647;28;20065;-61
2022/03/19 15:03:50;;;;;;;0.85;0.40;;;17.90;59.10;;;;;;10371557;28;20066;-60
2022/03/19 15:08:55;;;;;;;0.85;0.30;;;17.90;59.10;;;;;;10378646;28;20080;-61
2022/03/19 15:13:56;;;;;;;0.20;0.20;;;17.90;59.10;;;;;;10379984;28;20033;-60
2022/03/19 15:18:57;;;;;;;0.60;0.38;;;17.90;59.00;;;;;;10374991;28;20370;-60
2022/03/19 15:23:57;;;;;;;1.73;0.80;;;17.90;59.00;;;;;;10375312;28;20076;-61
2022/03/19 15:28:58;;;;;;;0.65;0.20;;;17.90;59.50;;;;;;10392309;28;20128;-61
2022/03/19 15:33:59;;;;;;;0.85;0.30;;;17.90;59.00;;;;;;10378669;28;20030;-61
2022/03/19 15:38:59;;;;;;;0.50;0.30;;;17.80;59.10;;;;;;10385640;28;20478;-61
2022/03/19 15:44:00;;;;;;;0.73;0.30;;;17.80;59.20;;;;;;10419042;28;20037;-61
2022/03/19 15:49:03;;;;;;;0.82;0.20;;;17.80;59.10;;;;;;10419106;28;20495;-61
2022/03/19 15:54:04;;;;;;;0.20;0.20;;;17.80;58.80;;;;;;10399357;28;20445;-61
2022/03/19 15:59:04;;;;;;;0.98;0.40;;;17.80;59.00;;;;;;10377792;28;20026;-61
2022/03/19 16:04:05;;;;;;;1.40;0.55;;;17.70;59.00;;;;;;10378023;28;20494;-61
2022/03/19 16:09:05;;;;;;;0.60;0.40;;;17.70;58.90;;;;;;10403840;28;20087;-60
2022/03/19 16:14:06;;;;;;;1.13;0.30;;;17.70;58.90;;;;;;10417190;28;20451;-61
2022/03/19 16:19:07;;;;;;;0.90;0.30;;;17.70;58.80;;;;;;10416809;28;20040;-61
2022/03/19 16:24:08;;;;;;;0.63;0.30;;;17.70;58.80;;;;;;10375452;28;20081;-61
2022/03/19 16:29:13;;;;;;;0.65;0.45;;;17.70;58.90;;;;;;10376539;28;20077;-61
2022/03/19 16:34:14;;;;;;;1.08;0.47;;;17.60;58.70;;;;;;10384606;28;20045;-61
2022/03/19 16:39:15;;;;;;;0.65;0.30;;;17.60;58.80;;;;;;10377488;28;20454;-61
2022/03/19 16:44:15;;;;;;;0.30;0.28;;;17.50;58.80;;;;;;10382697;28;20458;-61
2022/03/19 16:49:16;;;;;;;1.17;0.30;;;17.50;58.80;;;;;;10376012;28;20490;-61
2022/03/19 16:54:17;;;;;;;0.68;0.40;;;17.50;58.80;;;;;;10374557;28;20057;-61
2022/03/19 16:59:18;;;;;;;0.70;0.35;;;17.50;58.90;;;;;;10370842;28;20102;-60
2022/03/19 17:04:19;;;;;;;0.32;0.20;;;17.40;58.80;;;;;;10412717;28;20126;-61
2022/03/19 17:09:20;;;;;;;2.40;0.32;;;17.40;58.70;;;;;;10385247;28;20322;-61
2022/03/19 17:14:20;;;;;;;0.45;0.30;;;17.40;58.80;;;;;;10414971;28;20037;-61
2022/03/19 17:19:21;;;;;;;0.52;0.30;;;17.30;58.80;;;;;;10371421;28;20060;-61
2022/03/19 17:24:22;;;;;;;1.02;0.55;;;17.30;58.80;;;;;;10414552;28;20037;-61
2022/03/19 17:29:22;;;;;;;0.55;0.20;;;17.30;58.70;;;;;;10414782;28;20081;-60
2022/03/19 17:34:23;;;;;;;0.77;0.35;;;17.20;58.70;;;;;;10391766;28;20117;-61
2022/03/19 17:39:25;;;;;;;0.40;0.22;;;17.20;58.60;;;;;;10388736;28;20072;-61
2022/03/19 17:44:27;;;;;;;0.82;0.60;;;17.20;58.70;;;;;;10373528;28;20050;-61
2022/03/19 17:49:28;;;;;;;1.20;0.30;;;17.20;58.70;;;;;;10373272;28;20113;-61
2022/03/19 17:54:31;;;;;;;0.50;0.20;;;17.20;58.70;;;;;;10386895;28;20034;-61
2022/03/19 17:59:31;;;;;;;0.75;0.30;;;17.20;58.60;;;;;;10392005;28;20061;-60
2022/03/19 18:04:32;;;;;;;0.80;0.30;;;17.20;58.60;;;;;;10372569;28;20057;-60
2022/03/19 18:09:33;;;;;;;0.63;0.30;;;17.20;58.60;;;;;;10380567;28;20025;-60
2022/03/19 18:14:33;;;;;;;0.85;0.40;;;17.10;58.50;;;;;;10412463;28;20565;-61
2022/03/19 18:19:34;;;;;;;0.85;0.32;;;17.10;58.50;;;;;;10412993;28;20049;-60
2022/03/19 18:24:35;;;;;;;0.68;0.40;;;17.10;58.40;;;;;;10399289;28;20435;-61
2022/03/19 18:29:36;;;;;;;0.75;0.35;;;17.10;58.40;;;;;;10412973;28;20516;-61
2022/03/19 18:34:37;;;;;;;1.17;0.40;;;17.10;58.30;;;;;;10372009;28;20096;-60
2022/03/19 18:39:37;;;;;;;0.55;0.30;;;17.10;58.30;;;;;;10393525;28;20075;-60
2022/03/19 18:44:38;;;;;;;1.42;0.32;;;17.10;58.20;;;;;;10371907;28;20118;-60
2022/03/19 18:49:39;;;;;;;1.27;0.43;;;17.10;58.20;;;;;;10372068;28;20033;-61
2022/03/19 18:54:42;;;;;;;0.65;0.30;;;17.10;58.20;;;;;;10370310;28;20064;-60
2022/03/19 18:59:43;;;;;;;0.80;0.30;;;17.10;58.00;;;;;;10387720;28;20752;-61
2022/03/19 19:04:46;;;;;;;0.80;0.30;;;17.00;58.40;;;;;;10402981;28;20062;-61
2022/03/19 19:09:47;;;;;;;1.33;0.73;;;17.00;58.10;;;;;;10380780;28;20061;-63
2022/03/19 19:14:49;;;;;;;2.95;0.88;;;17.00;58.00;;;;;;10379785;28;20040;-61
2022/03/19 19:19:50;;;;;;;5.82;0.98;;;17.00;57.80;;;;;;10385107;28;20025;-61
2022/03/19 19:24:51;;;;;;;4.13;0.88;;;17.00;57.50;;;;;;10384871;28;20494;-60
2022/03/19 19:29:55;;;;;;;3.97;0.70;;;17.00;57.50;;;;;;10386987;28;20107;-60
2022/03/19 19:34:56;;;;;;;2.72;0.93;;;17.00;57.70;;;;;;10378338;28;20796;-59
2022/03/19 19:39:56;;;;;;;4.55;1.20;;;17.00;57.60;;;;;;10370917;28;20108;-59
2022/03/19 19:44:57;;;;;;;3.08;0.85;;;17.00;57.90;;;;;;10369806;28;20145;-59
2022/03/19 19:49:58;;;;;;;4.07;1.10;;;17.00;57.90;;;;;;10387525;28;20096;-60
2022/03/19 19:54:59;;;;;;;1.83;0.70;;;17.00;58.10;;;;;;10391218;28;20037;-59
2022/03/19 20:00:06;;;;;;;1.40;0.43;;;17.00;58.00;;;;;;10397516;28;20088;-59
2022/03/19 20:05:07;;;;;;;3.85;0.63;;;17.00;58.30;;;;;;10389990;28;20028;-59
2022/03/19 20:10:15;;;;;;;4.13;0.80;;;17.00;57.90;;;;;;10415832;28;20033;-59
2022/03/19 20:15:17;;;;;;;2.45;0.88;;;17.00;58.00;;;;;;10415693;28;20021;-59
2022/03/19 20:20:22;;;;;;;4.63;1.17;;;17.00;57.90;;;;;;10410325;28;20061;-59
2022/03/19 20:25:23;;;;;;;2.60;0.82;;;17.00;57.90;;;;;;10375308;28;20106;-59
2022/03/19 20:30:26;;;;;;;3.63;1.05;;;17.00;58.00;;;;;;10376791;28;20144;-59
2022/03/19 20:35:27;;;;;;;1.40;0.50;;;17.00;58.10;;;;;;10381846;28;20538;-59
2022/03/19 20:40:28;;;;;;;2.00;0.60;;;17.00;58.70;;;;;;10390840;28;20104;-59
2022/03/19 20:45:32;;;;;;;4.53;0.85;;;17.00;57.90;;;;;;10417379;28;20156;-59
2022/03/19 20:50:33;;;;;;;2.72;0.60;;;17.00;57.80;;;;;;10415321;28;20033;-60
2022/03/19 20:55:35;;;;;;;2.45;0.73;;;17.00;57.90;;;;;;10385670;28;20561;-59
2022/03/19 21:00:38;;;;;;;1.52;0.52;;;17.00;57.90;;;;;;10376068;28;20038;-59
2022/03/19 21:05:39;;;;;;;3.10;0.50;;;17.00;58.00;;;;;;10382657;28;20389;-59
2022/03/19 21:11:38;;;;;;;1.55;0.60;;;17.00;58.00;;;;;;10381657;28;20080;-59
2022/03/19 21:16:01;;;;;;;2.78;0.75;;;17.00;58.00;;;;;;10374833;28;20050;-60
2022/03/19 21:21:02;;;;;;;1.15;0.52;;;16.90;58.00;;;;;;10374996;28;20030;-60
2022/03/19 21:26:03;;;;;;;2.67;0.98;;;17.00;58.10;;;;;;10398724;28;20065;-60
2022/03/19 21:31:04;;;;;;;1.25;0.55;;;17.00;58.10;;;;;;10376934;28;20120;-59
2022/03/19 21:36:05;;;;;;;1.42;0.68;;;16.90;58.10;;;;;;10384690;28;20503;-60
2022/03/19 21:41:05;;;;;;;1.70;0.50;;;17.00;58.00;;;;;;10364851;28;20022;-60
2022/03/19 21:46:06;;;;;;;1.27;0.50;;;17.00;57.80;;;;;;10374110;28;20025;-59
2022/03/19 21:51:07;;;;;;;1.35;0.50;;;17.00;57.80;;;;;;10373750;28;20057;-60
2022/03/19 21:56:08;;;;;;;1.83;0.43;;;17.00;57.80;;;;;;10376086;28;20490;-59
2022/03/19 22:01:08;;;;;;;1.75;0.60;;;17.00;57.80;;;;;;10369198;28;20034;-59
2022/03/19 22:06:09;;;;;;;1.83;0.82;;;17.00;57.80;;;;;;10373250;28;20029;-59
2022/03/19 22:11:10;;;;;;;1.30;0.50;;;16.90;57.90;;;;;;10381592;28;20037;-59
2022/03/19 22:16:10;;;;;;;2.95;0.80;;;16.90;57.90;;;;;;10413240;28;20155;-59
2022/03/19 22:21:11;;;;;;;1.77;0.57;;;16.90;58.00;;;;;;10412960;28;20104;-59
2022/03/19 22:26:12;;;;;;;1.35;0.60;;;17.00;58.00;;;;;;10369535;28;20109;-59
2022/03/19 22:31:15;;;;;;;2.60;0.50;;;17.00;57.90;;;;;;10412681;28;20067;-59
2022/03/19 22:36:16;;;;;;;2.65;0.75;;;16.90;57.80;;;;;;10413240;28;20378;-60
2022/03/19 22:41:16;;;;;;;2.03;0.60;;;16.90;57.80;;;;;;10381818;28;20053;-59
2022/03/19 22:46:17;;;;;;;3.35;0.50;;;17.00;57.70;;;;;;10372097;28;20546;-59
2022/03/19 22:51:18;;;;;;;1.88;0.45;;;17.00;57.70;;;;;;10378004;28;20092;-59
2022/03/19 22:56:18;;;;;;;2.15;0.60;;;17.00;57.70;;;;;;10375640;28;20099;-59
2022/03/19 23:01:19;;;;;;;1.75;0.50;;;17.00;57.70;;;;;;10372508;28;20022;-59
2022/03/19 23:06:20;;;;;;;2.75;0.70;;;16.90;57.70;;;;;;10371989;28;20084;-59
2022/03/19 23:11:28;;;;;;;1.20;0.40;;;16.90;57.70;;;;;;10371600;28;20056;-59
2022/03/19 23:16:29;;;;;;;6.05;1.25;;;16.90;57.80;;;;;;10399555;28;20116;-59
2022/03/19 23:21:30;;;;;;;0.93;0.40;;;16.90;57.80;;;;;;10380383;28;20132;-59
2022/03/19 23:26:32;;;;;;;0.98;0.30;;;16.90;57.90;;;;;;10413174;28;20048;-59
2022/03/19 23:31:34;;;;;;;1.23;0.57;;;16.90;57.90;;;;;;10419316;28;20393;-60
2022/03/19 23:36:35;;;;;;;1.35;0.55;;;16.80;57.90;;;;;;10419624;28;20492;-59
2022/03/19 23:41:35;;;;;;;2.50;1.02;;;16.90;57.90;;;;;;10385591;28;20040;-60
2022/03/19 23:46:36;;;;;;;1.13;0.50;;;16.90;57.80;;;;;;10378876;28;20433;-59
2022/03/19 23:51:37;;;;;;;0.43;0.30;;;16.90;57.70;;;;;;10378354;28;20127;-59
2022/03/19 23:56:38;;;;;;;1.15;0.50;;;16.90;57.70;;;;;;10380263;28;20101;-59
